Airfield :
LOGIN :

Register | Disclaimer

   EN    FR    IT 

 










Legend :    VFR   Marginal VFR   IFR   Intensive IFR   Very Intensive IFR
Visi :
Ceiling :
>= 8 km
>= 3000ft
5 to 8 km
1000 to 3000 ft
1500m to 5 km
500 to 1000 ft
800 to 1500m
200 to 500 ft
< 800m
< 200 ft
Symbols :   Thunderstorms  Fog  Heavy snow  Heavy precipitations  Wind > 20 kt
SIGMETs :     Misc.  Thunderstorms  Icing  Turbulence  Mountain Waves  Volcanic Ashes






- Airport Elevation : 36 ft
- IATA code : LTQ


LFAT - Le Touquet

CURRENT METAR :
  • 091000Z AUTO 30009KT 270V330 9999 FEW025 09/03 Q1004 NOSIG

EXPIRED METARs :
  • 090930Z AUTO 30010KT 260V350 9999 BKN037 BKN045 OVC054 09/03 Q1004 NOSIG
  • 090900Z AUTO 29010KT 9999 OVC032 08/03 Q1004 NOSIG
  • 090830Z AUTO 29009KT 9999 OVC030 08/02 Q1003 NOSIG
  • 090800Z AUTO 29010KT 9999 OVC030 08/02 Q1003 NOSIG
  • 090730Z AUTO 30011KT 270V330 9999 SCT030 BKN060 08/02 Q1003 NOSIG

TAF TAF LFAT
Valid from the 09 at 09:00 until the 09 at 18:00 UTC


090800Z 0909/0918 30013KT 9999 BKN030
BECMG 0914/0916 23010KT
PROB30
TEMPO 0916/0918 23015G25KT 4000 SHRA BKN012
ATIS : +33 3 21 06 62 84



MET'MAP, your aeronautical weather chart ! - Copyright ORBIFLY December 2007 - Disclaimer

ORBIFLY MET'MAP TEAM :

Programming & Development : Alexandra Zaïnal
Concept & original design : Baudouin d'Aumeries
Assistance for programming : Marc-Olivier Méhu
Technical & hardware support : Manuel Goepfert

Contact : metmap@orbifly.com




SOURCES & CREDITS :

   NOAA